sensor_id;sensor_type;location;lat;lon;timestamp;pressure;altitude;pressure_sealevel;temperature;humidity
51249;BME280;39642;47.556;18.728;2023-02-19T00:01:27;99662.91;;;20.65;34.31
51249;BME280;39642;47.556;18.728;2023-02-19T00:04:02;99660.34;;;20.64;34.33
51249;BME280;39642;47.556;18.728;2023-02-19T00:06:30;99657.69;;;20.64;34.37
51249;BME280;39642;47.556;18.728;2023-02-19T00:08:57;99665.63;;;20.64;34.32
51249;BME280;39642;47.556;18.728;2023-02-19T00:11:25;99655.03;;;20.64;34.30
51249;BME280;39642;47.556;18.728;2023-02-19T00:13:52;99652.41;;;20.64;34.36
51249;BME280;39642;47.556;18.728;2023-02-19T00:16:31;99641.81;;;20.64;34.36
51249;BME280;39642;47.556;18.728;2023-02-19T00:18:58;99640.84;;;20.65;34.31
51249;BME280;39642;47.556;18.728;2023-02-19T00:21:25;99642.66;;;20.64;34.33
51249;BME280;39642;47.556;18.728;2023-02-19T00:23:53;99638.22;;;20.65;34.31
51249;BME280;39642;47.556;18.728;2023-02-19T00:26:19;99641.72;;;20.65;34.31
51249;BME280;39642;47.556;18.728;2023-02-19T00:28:46;99636.44;;;20.65;34.25
51249;BME280;39642;47.556;18.728;2023-02-19T00:31:27;99639.94;;;20.66;34.28
51249;BME280;39642;47.556;18.728;2023-02-19T00:33:55;99631.16;;;20.65;34.23
51249;BME280;39642;47.556;18.728;2023-02-19T00:36:22;99626.72;;;20.66;34.23
51249;BME280;39642;47.556;18.728;2023-02-19T00:38:48;99629.34;;;20.66;34.24
51249;BME280;39642;47.556;18.728;2023-02-19T00:41:15;99624.06;;;20.66;34.23
51249;BME280;39642;47.556;18.728;2023-02-19T00:43:46;99632.00;;;20.66;34.22
51249;BME280;39642;47.556;18.728;2023-02-19T00:46:15;99627.63;;;20.65;34.22
51249;BME280;39642;47.556;18.728;2023-02-19T00:48:41;99634.66;;;20.66;34.23
51249;BME280;39642;47.556;18.728;2023-02-19T00:51:07;99633.69;;;20.67;34.23
51249;BME280;39642;47.556;18.728;2023-02-19T00:53:32;99634.66;;;20.66;34.22
51249;BME280;39642;47.556;18.728;2023-02-19T00:55:58;99630.19;;;20.66;34.20
51249;BME280;39642;47.556;18.728;2023-02-19T00:58:24;99637.28;;;20.66;34.16
51249;BME280;39642;47.556;18.728;2023-02-19T01:00:50;99627.63;;;20.65;34.16
51249;BME280;39642;47.556;18.728;2023-02-19T01:03:16;99624.06;;;20.66;34.18
51249;BME280;39642;47.556;18.728;2023-02-19T01:05:42;99628.50;;;20.65;34.17
51249;BME280;39642;47.556;18.728;2023-02-19T01:08:08;99629.34;;;20.66;34.15
51249;BME280;39642;47.556;18.728;2023-02-19T01:10:33;99624.16;;;20.64;34.13
51249;BME280;39642;47.556;18.728;2023-02-19T01:12:59;99633.81;;;20.65;34.13
51249;BME280;39642;47.556;18.728;2023-02-19T01:15:25;99630.41;;;20.63;34.10
51249;BME280;39642;47.556;18.728;2023-02-19T01:17:51;99624.16;;;20.64;34.13
51249;BME280;39642;47.556;18.728;2023-02-19T01:20:17;99632.94;;;20.65;34.15
51249;BME280;39642;47.556;18.728;2023-02-19T01:22:43;99636.53;;;20.64;34.14
51249;BME280;39642;47.556;18.728;2023-02-19T01:25:09;99633.03;;;20.63;34.12
51249;BME280;39642;47.556;18.728;2023-02-19T01:27:34;99642.66;;;20.64;34.11
51249;BME280;39642;47.556;18.728;2023-02-19T01:30:00;99647.12;;;20.64;34.09
51249;BME280;39642;47.556;18.728;2023-02-19T01:32:26;99646.28;;;20.63;34.10
51249;BME280;39642;47.556;18.728;2023-02-19T01:34:53;99647.12;;;20.64;34.10
51249;BME280;39642;47.556;18.728;2023-02-19T01:37:18;99652.41;;;20.64;34.06
51249;BME280;39642;47.556;18.728;2023-02-19T01:39:46;99654.09;;;20.65;34.06
51249;BME280;39642;47.556;18.728;2023-02-19T01:42:13;99651.44;;;20.65;34.03
51249;BME280;39642;47.556;18.728;2023-02-19T01:47:12;99640.97;;;20.63;34.03
51249;BME280;39642;47.556;18.728;2023-02-19T01:49:47;99646.28;;;20.63;34.05
51249;BME280;39642;47.556;18.728;2023-02-19T01:52:23;99638.41;;;20.62;34.07
51249;BME280;39642;47.556;18.728;2023-02-19T01:54:51;99638.41;;;20.62;34.09
51249;BME280;39642;47.556;18.728;2023-02-19T01:57:21;99643.72;;;20.62;34.07
51249;BME280;39642;47.556;18.728;2023-02-19T01:59:51;99634.94;;;20.61;34.08
51249;BME280;39642;47.556;18.728;2023-02-19T02:02:21;99625.28;;;20.60;34.04
51249;BME280;39642;47.556;18.728;2023-02-19T02:04:48;99627.91;;;20.60;34.11
51249;BME280;39642;47.556;18.728;2023-02-19T02:07:14;99614.69;;;20.60;34.09
51249;BME280;39642;47.556;18.728;2023-02-19T02:10:04;99621.78;;;20.59;34.10
51249;BME280;39642;47.556;18.728;2023-02-19T02:12:46;99625.28;;;20.60;34.11
51249;BME280;39642;47.556;18.728;2023-02-19T02:15:12;99625.28;;;20.60;34.15
51249;BME280;39642;47.556;18.728;2023-02-19T02:17:52;99623.50;;;20.61;34.12
51249;BME280;39642;47.556;18.728;2023-02-19T02:21:32;99614.69;;;20.60;34.16
51249;BME280;39642;47.556;18.728;2023-02-19T02:23:50;99625.28;;;20.60;34.15
51249;BME280;39642;47.556;18.728;2023-02-19T02:31:38;99617.34;;;20.60;34.15
51249;BME280;39642;47.556;18.728;2023-02-19T02:34:13;99610.28;;;20.61;34.15
51249;BME280;39642;47.556;18.728;2023-02-19T02:36:43;99612.03;;;20.60;34.16
51249;BME280;39642;47.556;18.728;2023-02-19T02:39:13;99612.91;;;20.61;34.12
51249;BME280;39642;47.556;18.728;2023-02-19T02:41:45;99611.97;;;20.62;34.12
51249;BME280;39642;47.556;18.728;2023-02-19T02:44:35;99604.97;;;20.61;34.12
51249;BME280;39642;47.556;18.728;2023-02-19T02:47:04;99600.53;;;20.61;34.13
51249;BME280;39642;47.556;18.728;2023-02-19T02:49:33;99608.47;;;20.61;34.13
51249;BME280;39642;47.556;18.728;2023-02-19T02:52:20;99612.91;;;20.61;34.13
51249;BME280;39642;47.556;18.728;2023-02-19T02:55:08;99604.09;;;20.60;34.17
51249;BME280;39642;47.556;18.728;2023-02-19T02:57:35;99595.25;;;20.61;34.16
51249;BME280;39642;47.556;18.728;2023-02-19T03:00:01;99601.47;;;20.60;34.13
51249;BME280;39642;47.556;18.728;2023-02-19T03:02:28;99593.53;;;20.60;34.16
51249;BME280;39642;47.556;18.728;2023-02-19T03:07:57;99593.53;;;20.60;34.17
51249;BME280;39642;47.556;18.728;2023-02-19T03:10:29;99599.69;;;20.61;34.19
51249;BME280;39642;47.556;18.728;2023-02-19T03:12:59;99601.47;;;20.60;34.16
51249;BME280;39642;47.556;18.728;2023-02-19T03:15:49;99596.09;;;20.62;34.19
51249;BME280;39642;47.556;18.728;2023-02-19T03:18:36;99602.34;;;20.61;34.18
51249;BME280;39642;47.556;18.728;2023-02-19T03:21:24;99600.53;;;20.61;34.19
51249;BME280;39642;47.556;18.728;2023-02-19T03:23:52;99597.06;;;20.61;34.16
51249;BME280;39642;47.556;18.728;2023-02-19T03:26:37;99594.28;;;20.62;34.17
51249;BME280;39642;47.556;18.728;2023-02-19T03:29:06;99598.72;;;20.62;34.14
51249;BME280;39642;47.556;18.728;2023-02-19T03:32:03;99599.56;;;20.62;34.14
51249;BME280;39642;47.556;18.728;2023-02-19T03:34:52;99604.87;;;20.62;34.14
51249;BME280;39642;47.556;18.728;2023-02-19T03:37:32;99604.97;;;20.61;34.11
51249;BME280;39642;47.556;18.728;2023-02-19T03:40:00;99614.59;;;20.62;34.07
51249;BME280;39642;47.556;18.728;2023-02-19T03:42:42;99604.87;;;20.62;34.09
51249;BME280;39642;47.556;18.728;2023-02-19T03:45:37;99604.87;;;20.62;34.08
51249;BME280;39642;47.556;18.728;2023-02-19T03:50:43;99611.97;;;20.62;34.07
51249;BME280;39642;47.556;18.728;2023-02-19T03:53:27;99619.91;;;20.62;34.05
51249;BME280;39642;47.556;18.728;2023-02-19T03:58:55;99608.47;;;20.61;34.05
51249;BME280;39642;47.556;18.728;2023-02-19T04:03:57;99620.84;;;20.61;34.01
51249;BME280;39642;47.556;18.728;2023-02-19T04:06:29;99624.34;;;20.61;34.00
51249;BME280;39642;47.556;18.728;2023-02-19T04:08:59;99630.56;;;20.60;34.02
51249;BME280;39642;47.556;18.728;2023-02-19T04:11:27;99624.34;;;20.61;34.00
51249;BME280;39642;47.556;18.728;2023-02-19T04:14:06;99619.06;;;20.61;34.00
51249;BME280;39642;47.556;18.728;2023-02-19T04:16:36;99621.69;;;20.61;34.00
51249;BME280;39642;47.556;18.728;2023-02-19T04:19:09;99617.34;;;20.60;34.02
51249;BME280;39642;47.556;18.728;2023-02-19T04:21:36;99617.34;;;20.60;34.02
51249;BME280;39642;47.556;18.728;2023-02-19T04:24:09;99640.22;;;20.61;34.03
51249;BME280;39642;47.556;18.728;2023-02-19T04:26:37;99641.16;;;20.60;34.02
51249;BME280;39642;47.556;18.728;2023-02-19T04:29:04;99635.84;;;20.60;34.01
51249;BME280;39642;47.556;18.728;2023-02-19T04:31:31;99636.72;;;20.61;34.02
51249;BME280;39642;47.556;18.728;2023-02-19T04:34:00;99634.16;;;20.59;34.03
51249;BME280;39642;47.556;18.728;2023-02-19T04:36:26;99641.16;;;20.60;34.02
51249;BME280;39642;47.556;18.728;2023-02-19T04:38:52;99644.75;;;20.59;34.01
51249;BME280;39642;47.556;18.728;2023-02-19T04:41:18;99650.81;;;20.61;34.02
51249;BME280;39642;47.556;18.728;2023-02-19T04:43:44;99641.06;;;20.62;34.02
51249;BME280;39642;47.556;18.728;2023-02-19T04:46:10;99643.78;;;20.60;34.00
51249;BME280;39642;47.556;18.728;2023-02-19T04:48:36;99642.03;;;20.61;34.01
51249;BME280;39642;47.556;18.728;2023-02-19T04:51:06;99643.78;;;20.60;34.02
51249;BME280;39642;47.556;18.728;2023-02-19T04:53:32;99642.87;;;20.61;34.01
51249;BME280;39642;47.556;18.728;2023-02-19T04:56:07;99641.16;;;20.60;34.02
51249;BME280;39642;47.556;18.728;2023-02-19T04:58:33;99635.00;;;20.59;34.03
51249;BME280;39642;47.556;18.728;2023-02-19T05:01:00;99633.22;;;20.60;34.02
51249;BME280;39642;47.556;18.728;2023-02-19T05:03:26;99619.13;;;20.59;34.04
51249;BME280;39642;47.556;18.728;2023-02-19T05:05:51;99619.97;;;20.60;34.02
51249;BME280;39642;47.556;18.728;2023-02-19T05:08:18;99613.00;;;20.59;34.03
51249;BME280;39642;47.556;18.728;2023-02-19T05:10:44;99610.38;;;20.59;34.03
51249;BME280;39642;47.556;18.728;2023-02-19T05:13:10;99613.00;;;20.59;34.04
51249;BME280;39642;47.556;18.728;2023-02-19T05:15:35;99615.66;;;20.59;34.04
51249;BME280;39642;47.556;18.728;2023-02-19T05:18:01;99621.78;;;20.59;34.04
51249;BME280;39642;47.556;18.728;2023-02-19T05:20:27;99620.94;;;20.59;34.06
51249;BME280;39642;47.556;18.728;2023-02-19T05:22:53;99618.28;;;20.59;34.04
51249;BME280;39642;47.556;18.728;2023-02-19T05:25:19;99620.94;;;20.59;34.05
51249;BME280;39642;47.556;18.728;2023-02-19T05:27:45;99622.75;;;20.58;34.06
51249;BME280;39642;47.556;18.728;2023-02-19T05:30:11;99620.94;;;20.59;34.08
51249;BME280;39642;47.556;18.728;2023-02-19T05:32:37;99618.28;;;20.59;34.09
51249;BME280;39642;47.556;18.728;2023-02-19T05:35:04;99620.94;;;20.59;34.09
51249;BME280;39642;47.556;18.728;2023-02-19T05:37:29;99618.28;;;20.59;34.09
51249;BME280;39642;47.556;18.728;2023-02-19T05:39:55;99614.81;;;20.58;34.10
51249;BME280;39642;47.556;18.728;2023-02-19T05:42:21;99617.44;;;20.58;34.09
51249;BME280;39642;47.556;18.728;2023-02-19T05:44:47;99622.75;;;20.58;34.11
51249;BME280;39642;47.556;18.728;2023-02-19T05:47:13;99628.03;;;20.58;34.10
51249;BME280;39642;47.556;18.728;2023-02-19T05:49:39;99618.28;;;20.59;34.11
51249;BME280;39642;47.556;18.728;2023-02-19T05:52:05;99622.75;;;20.58;34.10
51249;BME280;39642;47.556;18.728;2023-02-19T05:54:30;99628.03;;;20.58;34.12
51249;BME280;39642;47.556;18.728;2023-02-19T05:56:57;99626.22;;;20.59;34.11
51249;BME280;39642;47.556;18.728;2023-02-19T05:59:24;99618.28;;;20.59;34.13
51249;BME280;39642;47.556;18.728;2023-02-19T06:01:52;99628.88;;;20.59;34.14
51249;BME280;39642;47.556;18.728;2023-02-19T06:04:19;99617.44;;;20.58;34.12
51249;BME280;39642;47.556;18.728;2023-02-19T06:06:46;99622.75;;;20.58;34.16
51249;BME280;39642;47.556;18.728;2023-02-19T06:09:12;99626.22;;;20.59;34.13
51249;BME280;39642;47.556;18.728;2023-02-19T06:11:39;99628.03;;;20.58;34.16
51249;BME280;39642;47.556;18.728;2023-02-19T06:14:05;99627.06;;;20.59;34.18
51249;BME280;39642;47.556;18.728;2023-02-19T06:16:31;99620.94;;;20.59;34.19
51249;BME280;39642;47.556;18.728;2023-02-19T06:19:01;99620.09;;;20.58;34.17
51249;BME280;39642;47.556;18.728;2023-02-19T06:21:28;99618.28;;;20.59;34.18
51249;BME280;39642;47.556;18.728;2023-02-19T06:23:54;99609.53;;;20.58;34.19
51249;BME280;39642;47.556;18.728;2023-02-19T06:26:22;99613.00;;;20.59;34.19
51249;BME280;39642;47.556;18.728;2023-02-19T06:28:49;99615.56;;;20.61;34.20
51249;BME280;39642;47.556;18.728;2023-02-19T06:31:17;99611.19;;;20.59;34.21
51249;BME280;39642;47.556;18.728;2023-02-19T06:33:43;99619.97;;;20.60;34.20
51249;BME280;39642;47.556;18.728;2023-02-19T06:36:15;99615.66;;;20.59;34.21
51249;BME280;39642;47.556;18.728;2023-02-19T06:38:41;99605.91;;;20.59;34.21
51249;BME280;39642;47.556;18.728;2023-02-19T06:41:08;99612.03;;;20.60;34.21
51249;BME280;39642;47.556;18.728;2023-02-19T06:43:34;99619.06;;;20.61;34.23
51249;BME280;39642;47.556;18.728;2023-02-19T06:46:02;99622.63;;;20.60;34.25
51249;BME280;39642;47.556;18.728;2023-02-19T06:48:29;99616.41;;;20.61;34.24
51249;BME280;39642;47.556;18.728;2023-02-19T06:50:56;99613.75;;;20.61;34.25
51249;BME280;39642;47.556;18.728;2023-02-19T06:53:22;99627.00;;;20.61;34.25
51249;BME280;39642;47.556;18.728;2023-02-19T06:55:59;99619.91;;;20.62;34.25
51249;BME280;39642;47.556;18.728;2023-02-19T06:58:26;99618.22;;;20.61;34.24
51249;BME280;39642;47.556;18.728;2023-02-19T07:00:52;99625.19;;;20.62;34.26
51249;BME280;39642;47.556;18.728;2023-02-19T07:03:18;99619.06;;;20.61;34.27
51249;BME280;39642;47.556;18.728;2023-02-19T07:05:44;99625.19;;;20.62;34.26
51249;BME280;39642;47.556;18.728;2023-02-19T07:08:10;99627.00;;;20.61;34.26
51249;BME280;39642;47.556;18.728;2023-02-19T07:10:36;99626.03;;;20.62;34.26
51249;BME280;39642;47.556;18.728;2023-02-19T07:13:02;99632.19;;;20.63;34.26
51249;BME280;39642;47.556;18.728;2023-02-19T07:15:28;99626.03;;;20.62;34.27
51249;BME280;39642;47.556;18.728;2023-02-19T07:17:54;99620.75;;;20.62;34.27
51249;BME280;39642;47.556;18.728;2023-02-19T07:20:20;99625.19;;;20.62;34.27
51249;BME280;39642;47.556;18.728;2023-02-19T07:22:46;99626.03;;;20.62;34.31
51249;BME280;39642;47.556;18.728;2023-02-19T07:25:12;99618.09;;;20.62;34.31
51249;BME280;39642;47.556;18.728;2023-02-19T07:27:38;99624.34;;;20.61;34.31
51249;BME280;39642;47.556;18.728;2023-02-19T07:30:04;99617.25;;;20.62;34.30
51249;BME280;39642;47.556;18.728;2023-02-19T07:32:31;99621.63;;;20.63;34.31
51249;BME280;39642;47.556;18.728;2023-02-19T07:34:57;99620.75;;;20.62;34.45
51249;BME280;39642;47.556;18.728;2023-02-19T07:37:22;99611.03;;;20.63;34.36
51249;BME280;39642;47.556;18.728;2023-02-19T07:39:48;99615.38;;;20.64;34.47
51249;BME280;39642;47.556;18.728;2023-02-19T07:42:14;99622.34;;;20.65;34.40
51249;BME280;39642;47.556;18.728;2023-02-19T07:44:40;99619.63;;;20.66;34.37
51249;BME280;39642;47.556;18.728;2023-02-19T07:47:06;99622.25;;;20.66;34.32
51249;BME280;39642;47.556;18.728;2023-02-19T07:49:32;99630.13;;;20.68;34.28
51249;BME280;39642;47.556;18.728;2023-02-19T07:51:58;99632.75;;;20.68;34.28
51249;BME280;39642;47.556;18.728;2023-02-19T07:54:24;99630.03;;;20.69;34.35
51249;BME280;39642;47.556;18.728;2023-02-19T07:56:50;99641.34;;;20.71;34.40
51249;BME280;39642;47.556;18.728;2023-02-19T07:59:16;99638.69;;;20.71;34.34
51249;BME280;39642;47.556;18.728;2023-02-19T08:01:44;99651.84;;;20.73;34.34
51249;BME280;39642;47.556;18.728;2023-02-19T08:04:30;99656.19;;;20.74;34.28
51249;BME280;39642;47.556;18.728;2023-02-19T08:06:56;99651.75;;;20.74;34.27
51249;BME280;39642;47.556;18.728;2023-02-19T08:09:21;99661.38;;;20.75;34.37
51249;BME280;39642;47.556;18.728;2023-02-19T08:11:47;99656.94;;;20.76;34.25
51249;BME280;39642;47.556;18.728;2023-02-19T08:14:31;99661.38;;;20.75;34.23
51249;BME280;39642;47.556;18.728;2023-02-19T08:16:57;99671.13;;;20.75;34.27
51249;BME280;39642;47.556;18.728;2023-02-19T08:19:23;99658.72;;;20.75;34.24
51249;BME280;39642;47.556;18.728;2023-02-19T08:21:49;99650.78;;;20.75;34.38
51249;BME280;39642;47.556;18.728;2023-02-19T08:24:15;99655.25;;;20.75;34.30
51249;BME280;39642;47.556;18.728;2023-02-19T08:26:41;99655.25;;;20.75;34.20
51249;BME280;39642;47.556;18.728;2023-02-19T08:29:07;99656.09;;;20.75;34.19
51249;BME280;39642;47.556;18.728;2023-02-19T08:31:33;99653.44;;;20.75;34.25
51249;BME280;39642;47.556;18.728;2023-02-19T08:33:59;99649.09;;;20.74;34.23
51249;BME280;39642;47.556;18.728;2023-02-19T08:36:25;99643.81;;;20.74;34.28
51249;BME280;39642;47.556;18.728;2023-02-19T08:38:52;99650.03;;;20.73;34.31
51249;BME280;39642;47.556;18.728;2023-02-19T08:41:17;99643.06;;;20.72;34.29
51249;BME280;39642;47.556;18.728;2023-02-19T08:43:43;99643.91;;;20.73;34.33
51249;BME280;39642;47.556;18.728;2023-02-19T08:46:10;99643.06;;;20.72;34.35
51249;BME280;39642;47.556;18.728;2023-02-19T08:48:37;99638.69;;;20.71;34.37
51249;BME280;39642;47.556;18.728;2023-02-19T08:51:06;99638.69;;;20.71;34.41
51249;BME280;39642;47.556;18.728;2023-02-19T08:53:34;99628.97;;;20.72;34.44
51249;BME280;39642;47.556;18.728;2023-02-19T08:56:09;99651.00;;;20.72;34.50
51249;BME280;39642;47.556;18.728;2023-02-19T08:58:35;99648.34;;;20.72;34.49
51249;BME280;39642;47.556;18.728;2023-02-19T09:01:02;99637.84;;;20.71;34.51
51249;BME280;39642;47.556;18.728;2023-02-19T09:03:32;99642.28;;;20.70;34.54
51249;BME280;39642;47.556;18.728;2023-02-19T09:05:58;99637.84;;;20.71;34.58
51249;BME280;39642;47.556;18.728;2023-02-19T09:08:23;99641.34;;;20.71;34.58
51249;BME280;39642;47.556;18.728;2023-02-19T09:10:57;99646.62;;;20.71;34.61
51249;BME280;39642;47.556;18.728;2023-02-19T09:13:23;99638.69;;;20.71;34.64
51249;BME280;39642;47.556;18.728;2023-02-19T09:15:49;99646.62;;;20.71;34.65
51249;BME280;39642;47.556;18.728;2023-02-19T09:18:15;99640.50;;;20.71;34.66
51249;BME280;39642;47.556;18.728;2023-02-19T09:20:41;99637.00;;;20.70;34.70
51249;BME280;39642;47.556;18.728;2023-02-19T09:23:06;99637.00;;;20.70;34.70
51249;BME280;39642;47.556;18.728;2023-02-19T09:25:32;99633.41;;;20.71;34.71
51249;BME280;39642;47.556;18.728;2023-02-19T09:27:58;99635.19;;;20.71;34.72
51249;BME280;39642;47.556;18.728;2023-02-19T09:30:24;99629.06;;;20.70;34.74
51249;BME280;39642;47.556;18.728;2023-02-19T09:32:50;99629.91;;;20.71;34.74
51249;BME280;39642;47.556;18.728;2023-02-19T09:35:16;99623.69;;;20.72;34.77
51249;BME280;39642;47.556;18.728;2023-02-19T09:37:42;99624.53;;;20.72;34.76
51249;BME280;39642;47.556;18.728;2023-02-19T09:40:08;99623.56;;;20.73;34.76
51249;BME280;39642;47.556;18.728;2023-02-19T09:42:35;99618.19;;;20.75;34.75
51249;BME280;39642;47.556;18.728;2023-02-19T09:45:03;99620.84;;;20.75;34.86
51249;BME280;39642;47.556;18.728;2023-02-19T09:47:31;99624.25;;;20.77;34.77
51249;BME280;39642;47.556;18.728;2023-02-19T09:50:05;99618.09;;;20.76;34.77
51249;BME280;39642;47.556;18.728;2023-02-19T09:52:38;99609.22;;;20.77;34.78
51249;BME280;39642;47.556;18.728;2023-02-19T09:55:31;99612.63;;;20.79;34.75
51249;BME280;39642;47.556;18.728;2023-02-19T09:58:01;99616.09;;;20.80;34.76
51249;BME280;39642;47.556;18.728;2023-02-19T10:00:30;99605.53;;;20.80;34.84
51249;BME280;39642;47.556;18.728;2023-02-19T10:03:13;99603.63;;;20.82;34.80
51249;BME280;39642;47.556;18.728;2023-02-19T10:05:41;99597.50;;;20.82;34.78
51249;BME280;39642;47.556;18.728;2023-02-19T10:08:12;99593.88;;;20.83;34.79
51249;BME280;39642;47.556;18.728;2023-02-19T10:10:40;99579.72;;;20.84;34.78
51249;BME280;39642;47.556;18.728;2023-02-19T10:13:17;99587.56;;;20.85;34.78
51249;BME280;39642;47.556;18.728;2023-02-19T10:18:11;99581.25;;;20.88;34.86
51249;BME280;39642;47.556;18.728;2023-02-19T10:20:40;99579.34;;;20.90;34.79
51249;BME280;39642;47.556;18.728;2023-02-19T10:23:09;99577.53;;;20.90;35.01
51249;BME280;39642;47.556;18.728;2023-02-19T10:25:42;99581.87;;;20.91;34.89
51249;BME280;39642;47.556;18.728;2023-02-19T10:28:14;99574.81;;;20.92;34.95
51249;BME280;39642;47.556;18.728;2023-02-19T10:30:40;99566.87;;;20.92;34.97
51249;BME280;39642;47.556;18.728;2023-02-19T10:33:12;99549.28;;;20.91;34.97
51249;BME280;39642;47.556;18.728;2023-02-19T10:35:54;99560.69;;;20.91;34.93
51249;BME280;39642;47.556;18.728;2023-02-19T10:38:27;99563.34;;;20.91;34.96
51249;BME280;39642;47.556;18.728;2023-02-19T10:41:20;99554.56;;;20.91;34.98
51249;BME280;39642;47.556;18.728;2023-02-19T10:43:54;99544.72;;;20.93;34.91
51249;BME280;39642;47.556;18.728;2023-02-19T10:46:27;99544.72;;;20.93;35.00
51249;BME280;39642;47.556;18.728;2023-02-19T10:49:00;99543.78;;;20.94;35.03
51249;BME280;39642;47.556;18.728;2023-02-19T10:51:32;99542.84;;;20.95;35.01
51249;BME280;39642;47.556;18.728;2023-02-19T10:54:18;99532.25;;;20.95;35.12
51249;BME280;39642;47.556;18.728;2023-02-19T10:56:44;99535.75;;;20.95;35.08
51249;BME280;39642;47.556;18.728;2023-02-19T11:01:58;99527.72;;;20.97;35.12
51249;BME280;39642;47.556;18.728;2023-02-19T11:04:27;99517.97;;;20.97;35.05
51249;BME280;39642;47.556;18.728;2023-02-19T11:06:54;99525.81;;;20.99;35.21
51249;BME280;39642;47.556;18.728;2023-02-19T11:09:30;99528.34;;;21.00;35.21
51249;BME280;39642;47.556;18.728;2023-02-19T11:11:59;99506.31;;;21.00;35.26
51249;BME280;39642;47.556;18.728;2023-02-19T11:14:27;99508.13;;;20.99;35.15
51249;BME280;39642;47.556;18.728;2023-02-19T11:16:56;99506.31;;;21.00;35.15
51249;BME280;39642;47.556;18.728;2023-02-19T11:19:24;99507.16;;;21.00;35.32
51249;BME280;39642;47.556;18.728;2023-02-19T11:21:51;99500.19;;;20.99;35.30
51249;BME280;39642;47.556;18.728;2023-02-19T11:24:24;99508.97;;;21.00;35.43
51249;BME280;39642;47.556;18.728;2023-02-19T11:26:50;99503.69;;;21.00;35.35
51249;BME280;39642;47.556;18.728;2023-02-19T11:29:19;99486.00;;;21.00;35.38
51249;BME280;39642;47.556;18.728;2023-02-19T11:31:50;99501.88;;;21.00;35.45
51249;BME280;39642;47.556;18.728;2023-02-19T11:36:46;99501.03;;;21.00;35.46
51249;BME280;39642;47.556;18.728;2023-02-19T11:50:20;99498.50;;;20.98;35.55
51249;BME280;39642;47.556;18.728;2023-02-19T11:52:56;99491.41;;;20.99;35.67
51249;BME280;39642;47.556;18.728;2023-02-19T12:00:49;99467.78;;;20.96;35.75
51249;BME280;39642;47.556;18.728;2023-02-19T12:09:31;99474.87;;;20.95;35.69
51249;BME280;39642;47.556;18.728;2023-02-19T12:12:17;99474.78;;;20.97;35.84
51249;BME280;39642;47.556;18.728;2023-02-19T12:18:06;99467.87;;;20.94;35.80
51249;BME280;39642;47.556;18.728;2023-02-19T12:20:47;99474.97;;;20.94;35.57
51249;BME280;39642;47.556;18.728;2023-02-19T12:24:24;99473.28;;;20.93;35.83
51249;BME280;39642;47.556;18.728;2023-02-19T12:29:23;99455.81;;;20.90;35.59
51249;BME280;39642;47.556;18.728;2023-02-19T12:35:05;99467.31;;;20.89;35.35
51249;BME280;39642;47.556;18.728;2023-02-19T12:37:57;99466.47;;;20.89;35.72
51249;BME280;39642;47.556;18.728;2023-02-19T12:40:37;99469.22;;;20.87;35.37
51249;BME280;39642;47.556;18.728;2023-02-19T12:43:14;99463.09;;;20.87;35.59
51249;BME280;39642;47.556;18.728;2023-02-19T12:46:08;99450.81;;;20.86;35.66
51249;BME280;39642;47.556;18.728;2023-02-19T12:48:55;99446.44;;;20.85;35.46
51249;BME280;39642;47.556;18.728;2023-02-19T12:53:58;99451.75;;;20.85;35.34
51249;BME280;39642;47.556;18.728;2023-02-19T12:56:41;99447.41;;;20.84;35.74
51249;BME280;39642;47.556;18.728;2023-02-19T12:59:26;99450.91;;;20.84;35.44
51249;BME280;39642;47.556;18.728;2023-02-19T13:05:39;99439.47;;;20.84;35.33
51249;BME280;39642;47.556;18.728;2023-02-19T13:10:45;99436.91;;;20.82;35.39
51249;BME280;39642;47.556;18.728;2023-02-19T13:13:18;99428.13;;;20.82;35.30
51249;BME280;39642;47.556;18.728;2023-02-19T13:15:49;99424.66;;;20.81;35.35
51249;BME280;39642;47.556;18.728;2023-02-19T13:18:26;99431.75;;;20.81;35.48
51249;BME280;39642;47.556;18.728;2023-02-19T13:20:53;99427.38;;;20.79;35.63
51249;BME280;39642;47.556;18.728;2023-02-19T13:23:25;99423.06;;;20.78;35.41
51249;BME280;39642;47.556;18.728;2023-02-19T13:26:53;99413.31;;;20.79;35.43
51249;BME280;39642;47.556;18.728;2023-02-19T13:32:25;99425.78;;;20.77;35.40
51249;BME280;39642;47.556;18.728;2023-02-19T13:38:08;99422.31;;;20.76;35.42
51249;BME280;39642;47.556;18.728;2023-02-19T13:40:40;99417.94;;;20.75;35.48
51249;BME280;39642;47.556;18.728;2023-02-19T13:43:23;99413.63;;;20.74;35.51
51249;BME280;39642;47.556;18.728;2023-02-19T13:46:05;99406.63;;;20.73;35.57
51249;BME280;39642;47.556;18.728;2023-02-19T13:48:39;99426.94;;;20.73;35.52
51249;BME280;39642;47.556;18.728;2023-02-19T13:53:58;99455.19;;;20.72;35.55
51249;BME280;39642;47.556;18.728;2023-02-19T13:59:22;99501.09;;;20.71;35.67
51249;BME280;39642;47.556;18.728;2023-02-19T14:17:24;99518.03;;;20.69;35.88
51249;BME280;39642;47.556;18.728;2023-02-19T14:25:27;99547.03;;;20.70;35.87
51249;BME280;39642;47.556;18.728;2023-02-19T14:27:59;99552.34;;;20.70;35.90
51249;BME280;39642;47.556;18.728;2023-02-19T14:30:27;99551.50;;;20.70;35.88
51249;BME280;39642;47.556;18.728;2023-02-19T14:32:53;99553.19;;;20.71;35.85
51249;BME280;39642;47.556;18.728;2023-02-19T14:35:22;99552.34;;;20.70;35.88
51249;BME280;39642;47.556;18.728;2023-02-19T14:37:50;99548.84;;;20.70;35.88
51249;BME280;39642;47.556;18.728;2023-02-19T14:40:34;99562.06;;;20.70;35.83
51249;BME280;39642;47.556;18.728;2023-02-19T14:43:03;99555.81;;;20.71;35.85
51249;BME280;39642;47.556;18.728;2023-02-19T14:45:36;99549.69;;;20.70;35.85
51249;BME280;39642;47.556;18.728;2023-02-19T14:48:11;99547.88;;;20.71;35.94